createdAt,value
2023-05-12T00:00:52.639Z,11.45
2023-05-12T00:01:49.607Z,11.90
2023-05-12T00:02:46.704Z,13.07
2023-05-12T00:03:44.126Z,12.32
2023-05-12T00:04:41.690Z,13.50
2023-05-12T00:05:38.630Z,12.05
2023-05-12T00:06:35.858Z,10.10
2023-05-12T00:07:32.820Z,10.65
2023-05-12T00:08:30.292Z,11.18
2023-05-12T00:09:27.592Z,11.07
2023-05-12T00:10:24.598Z,15.60
2023-05-12T00:11:21.817Z,12.80
2023-05-12T00:12:18.728Z,12.80
2023-05-12T00:13:15.863Z,9.95
2023-05-12T00:14:12.748Z,13.10
2023-05-12T00:15:10.227Z,11.07
2023-05-12T00:16:07.446Z,12.60
2023-05-12T00:17:06.637Z,11.10
2023-05-12T00:18:03.700Z,10.43
2023-05-12T00:19:00.908Z,10.50
2023-05-12T00:19:57.907Z,10.70
2023-05-12T00:20:55.386Z,11.93
2023-05-12T00:21:52.286Z,10.38
2023-05-12T00:22:49.198Z,15.18
2023-05-12T00:23:46.244Z,13.57
2023-05-12T00:24:43.237Z,11.60
2023-05-12T00:25:40.147Z,12.13
2023-05-12T00:26:37.133Z,11.65
2023-05-12T00:27:34.103Z,11.20
2023-05-12T00:28:31.967Z,11.88
2023-05-12T00:29:28.894Z,10.13
2023-05-12T00:30:26.011Z,12.68
2023-05-12T00:31:22.896Z,10.52
2023-05-12T00:32:19.811Z,10.77
2023-05-12T00:33:17.386Z,10.90
2023-05-12T00:34:14.292Z,11.70
2023-05-12T00:35:11.270Z,10.43
2023-05-12T00:36:08.754Z,12.52
2023-05-12T00:37:06.654Z,11.15
2023-05-12T00:38:03.806Z,11.65
2023-05-12T00:39:00.718Z,10.93
2023-05-12T00:39:57.669Z,12.25
2023-05-12T00:40:54.610Z,12.60
2023-05-12T00:42:00.469Z,10.82
2023-05-12T00:42:57.617Z,11.88
2023-05-12T00:43:54.591Z,11.82
2023-05-12T00:44:51.499Z,10.18
2023-05-12T00:45:48.790Z,10.18
2023-05-12T00:46:46.009Z,11.10
2023-05-12T00:47:42.983Z,11.88
2023-05-12T00:48:39.935Z,11.88
2023-05-12T00:49:37.056Z,12.75
2023-05-12T00:50:34.237Z,11.88
2023-05-12T00:51:31.911Z,14.93
2023-05-12T00:52:28.915Z,10.13
2023-05-12T00:53:32.598Z,11.77
2023-05-12T00:54:35.999Z,10.00
2023-05-12T00:55:33.429Z,13.57
2023-05-12T00:56:30.471Z,10.85
2023-05-12T00:57:30.433Z,14.05
2023-05-12T00:58:27.352Z,11.63
2023-05-12T00:59:24.271Z,10.43
2023-05-12T01:00:22.121Z,12.73
2023-05-12T01:01:19.278Z,11.75
2023-05-12T01:02:16.394Z,11.05
2023-05-12T01:03:13.484Z,10.85
2023-05-12T01:04:10.820Z,11.10
2023-05-12T01:05:08.971Z,10.82
2023-05-12T01:06:31.595Z,10.52
2023-05-12T01:07:32.716Z,10.05
2023-05-12T01:08:29.990Z,11.40
2023-05-12T01:09:26.999Z,11.20
2023-05-12T01:10:23.921Z,12.20
2023-05-12T01:11:20.854Z,11.52
2023-05-12T01:12:18.235Z,10.85
2023-05-12T01:13:15.170Z,10.23
2023-05-12T01:14:12.162Z,9.80
2023-05-12T01:15:10.192Z,10.40
2023-05-12T01:16:08.410Z,10.32
2023-05-12T01:17:09.515Z,9.98
2023-05-12T01:18:07.143Z,11.52
2023-05-12T01:19:07.590Z,11.57
2023-05-12T01:20:06.781Z,10.93
2023-05-12T01:21:03.812Z,11.88
2023-05-12T01:22:00.825Z,14.50
2023-05-12T01:22:58.780Z,12.35
2023-05-12T01:23:59.539Z,10.88
2023-05-12T01:25:55.555Z,9.68
2023-05-12T01:26:52.461Z,13.85
2023-05-12T01:27:50.292Z,10.55
2023-05-12T01:28:48.101Z,10.68
2023-05-12T01:29:48.523Z,10.18
2023-05-12T01:30:46.168Z,11.75
2023-05-12T01:31:43.481Z,11.20
2023-05-12T01:32:41.002Z,11.27
2023-05-12T01:33:38.222Z,10.20
2023-05-12T01:34:36.275Z,10.32
2023-05-12T01:35:33.171Z,10.18
2023-05-12T01:36:30.073Z,9.50
2023-05-12T01:37:27.156Z,8.85
2023-05-12T01:38:24.145Z,11.90
2023-05-12T01:39:21.028Z,8.90
2023-05-12T01:40:18.506Z,10.95
2023-05-12T01:41:15.652Z,9.52
2023-05-12T01:42:12.570Z,8.73
2023-05-12T01:43:09.451Z,9.75
2023-05-12T01:44:06.305Z,9.63
2023-05-12T01:45:03.324Z,11.05
2023-05-12T01:46:00.279Z,9.68
2023-05-12T01:46:57.394Z,8.82
2023-05-12T01:47:54.396Z,10.13
2023-05-12T01:48:51.329Z,8.95
2023-05-12T01:49:48.270Z,10.95
2023-05-12T01:50:45.148Z,11.18
2023-05-12T01:51:42.088Z,10.90
2023-05-12T01:52:38.993Z,8.82
2023-05-12T01:53:36.573Z,10.65
2023-05-12T01:54:33.530Z,8.38
2023-05-12T01:55:30.486Z,8.30
2023-05-12T01:56:27.548Z,9.02
2023-05-12T01:57:24.632Z,9.27
2023-05-12T01:58:21.587Z,7.93
2023-05-12T01:59:18.516Z,10.15
2023-05-12T02:00:15.795Z,9.73
2023-05-12T02:01:12.686Z,9.40
2023-05-12T02:02:09.718Z,8.93
2023-05-12T02:03:06.918Z,9.20
2023-05-12T02:04:04.948Z,11.23
2023-05-12T02:05:02.000Z,9.38
2023-05-12T02:05:59.086Z,9.25
2023-05-12T02:06:56.066Z,9.30
2023-05-12T02:07:52.964Z,9.45
2023-05-12T02:08:49.867Z,11.25
2023-05-12T02:09:46.767Z,9.73
2023-05-12T02:10:43.664Z,10.07
2023-05-12T02:11:40.623Z,9.55
2023-05-12T02:12:37.613Z,9.95
2023-05-12T02:13:35.158Z,9.48
2023-05-12T02:14:32.126Z,10.57
2023-05-12T02:15:29.078Z,10.07
2023-05-12T02:16:26.230Z,11.68
2023-05-12T02:17:25.305Z,10.60
2023-05-12T02:18:22.497Z,13.00
2023-05-12T02:19:22.584Z,11.88
2023-05-12T02:20:19.850Z,10.57
2023-05-12T02:21:17.014Z,10.50
2023-05-12T02:22:14.015Z,10.40
2023-05-12T02:23:10.928Z,11.25
2023-05-12T02:24:08.151Z,9.57
2023-05-12T02:25:05.614Z,10.52
2023-05-12T02:26:02.529Z,10.88
2023-05-12T02:26:59.432Z,11.60
2023-05-12T02:27:56.344Z,12.27
2023-05-12T02:28:53.268Z,11.98
2023-05-12T02:29:50.176Z,9.50
2023-05-12T02:30:51.125Z,9.90
2023-05-12T02:31:48.044Z,10.60
2023-05-12T02:32:45.022Z,9.95
2023-05-12T02:33:42.068Z,12.52
2023-05-12T02:34:39.014Z,11.45
2023-05-12T02:35:35.946Z,11.23
2023-05-12T02:36:32.966Z,9.80
2023-05-12T02:37:29.868Z,9.65
2023-05-12T02:38:27.684Z,9.43
2023-05-12T02:39:24.606Z,11.02
2023-05-12T02:40:21.675Z,10.52
2023-05-12T02:41:18.736Z,9.65
2023-05-12T02:42:15.967Z,13.02
2023-05-12T02:43:12.861Z,10.20
2023-05-12T02:44:09.767Z,9.32
2023-05-12T02:45:07.399Z,9.13
2023-05-12T02:46:04.371Z,9.40
2023-05-12T02:47:01.424Z,12.98
2023-05-12T02:47:58.380Z,9.73
2023-05-12T02:48:55.359Z,13.68
2023-05-12T02:49:52.311Z,11.38
2023-05-12T02:50:49.206Z,11.73
2023-05-12T02:51:46.249Z,10.95
2023-05-12T02:52:43.176Z,9.68
2023-05-12T02:53:40.090Z,8.85
2023-05-12T02:54:36.998Z,8.45
2023-05-12T02:55:34.291Z,9.40
2023-05-12T02:56:33.786Z,8.00
2023-05-12T02:57:34.285Z,9.00
2023-05-12T02:58:31.553Z,8.40
2023-05-12T02:59:29.116Z,10.20
2023-05-12T03:00:25.996Z,8.25
2023-05-12T03:01:22.912Z,11.48
2023-05-12T03:02:19.822Z,11.20
2023-05-12T03:03:16.778Z,10.98
2023-05-12T03:04:13.754Z,8.80
2023-05-12T03:05:10.656Z,10.70
2023-05-12T03:06:08.013Z,9.77
2023-05-12T03:07:05.179Z,8.27
2023-05-12T03:08:03.092Z,10.82
2023-05-12T03:09:00.125Z,8.50
2023-05-12T03:09:58.174Z,8.70
2023-05-12T03:10:55.140Z,12.45
2023-05-12T03:11:52.093Z,8.50
2023-05-12T03:12:49.028Z,8.38
2023-05-12T03:13:45.897Z,11.73
2023-05-12T03:14:42.872Z,8.75
2023-05-12T03:15:39.776Z,12.35
2023-05-12T03:16:37.132Z,9.23
2023-05-12T03:17:34.143Z,8.13
2023-05-12T03:18:31.130Z,9.43
2023-05-12T03:19:28.176Z,8.52
2023-05-12T03:20:25.135Z,8.77
2023-05-12T03:21:22.545Z,9.65
2023-05-12T03:22:19.562Z,9.15
2023-05-12T03:23:17.104Z,9.23
2023-05-12T03:24:14.100Z,8.55
2023-05-12T03:25:11.076Z,10.05
2023-05-12T03:26:08.030Z,10.15
2023-05-12T03:27:05.388Z,8.38
2023-05-12T03:28:03.851Z,8.60
2023-05-12T03:29:00.754Z,9.52
2023-05-12T03:29:57.869Z,12.43
2023-05-12T03:30:54.765Z,9.02
2023-05-12T03:31:51.676Z,11.50
2023-05-12T03:32:48.690Z,8.70
2023-05-12T03:33:45.548Z,10.52
2023-05-12T03:34:42.549Z,9.50
2023-05-12T03:35:39.552Z,10.00
2023-05-12T03:36:37.526Z,9.32
2023-05-12T03:37:34.476Z,10.27
2023-05-12T03:38:31.566Z,11.20
2023-05-12T03:39:28.430Z,9.80
2023-05-12T03:40:25.312Z,11.02
2023-05-12T03:41:22.327Z,9.30
2023-05-12T03:42:19.461Z,10.10
2023-05-12T03:43:16.333Z,10.50
2023-05-12T03:44:13.432Z,9.50
2023-05-12T03:45:10.742Z,10.77
2023-05-12T03:46:07.867Z,10.48
2023-05-12T03:47:05.290Z,10.80
2023-05-12T03:48:02.327Z,9.55
2023-05-12T03:48:59.349Z,9.73
2023-05-12T03:49:56.291Z,9.77
2023-05-12T03:50:53.240Z,11.27
2023-05-12T03:51:50.165Z,10.43
2023-05-12T03:52:47.032Z,9.40
2023-05-12T03:53:46.491Z,9.27
2023-05-12T03:54:43.389Z,10.07
2023-05-12T03:55:40.329Z,9.48
2023-05-12T03:56:37.291Z,9.75
2023-05-12T03:57:36.568Z,9.52
2023-05-12T03:58:33.507Z,10.93
2023-05-12T03:59:33.238Z,10.23
2023-05-12T04:00:30.149Z,10.02
2023-05-12T04:01:27.205Z,9.52
2023-05-12T04:02:24.257Z,10.45
2023-05-12T04:03:21.711Z,10.75
2023-05-12T04:04:18.684Z,10.40
2023-05-12T04:05:16.429Z,10.43
2023-05-12T04:06:13.350Z,11.10
2023-05-12T04:07:10.274Z,9.75
2023-05-12T04:08:07.394Z,10.40
2023-05-12T04:09:04.449Z,10.30
2023-05-12T04:10:01.398Z,11.35
2023-05-12T04:10:59.473Z,11.98
2023-05-12T04:11:56.433Z,12.98
2023-05-12T04:12:53.355Z,11.63
2023-05-12T04:13:50.529Z,11.93
2023-05-12T04:14:48.447Z,10.75
2023-05-12T04:15:45.349Z,11.25
2023-05-12T04:16:42.327Z,13.05
2023-05-12T04:17:39.310Z,10.52
2023-05-12T04:18:37.016Z,11.02
2023-05-12T04:19:34.413Z,10.93
2023-05-12T04:20:31.411Z,12.50
2023-05-12T04:21:28.349Z,10.88
2023-05-12T04:22:25.852Z,10.18
2023-05-12T04:23:23.349Z,10.52
2023-05-12T04:24:20.247Z,11.60
2023-05-12T04:25:17.249Z,10.90
2023-05-12T04:26:14.197Z,10.73
2023-05-12T04:27:11.139Z,10.13
2023-05-12T04:28:10.719Z,9.93
2023-05-12T04:29:08.968Z,10.00
2023-05-12T04:30:06.713Z,11.12
2023-05-12T04:31:04.791Z,10.00
2023-05-12T04:32:01.739Z,11.50
2023-05-12T04:32:58.802Z,12.68
2023-05-12T04:33:56.309Z,9.80
2023-05-12T04:34:56.371Z,10.40
2023-05-12T04:35:57.230Z,11.35
2023-05-12T04:37:51.653Z,10.57
2023-05-12T04:38:48.750Z,10.93
2023-05-12T04:39:45.786Z,9.65
2023-05-12T04:40:42.738Z,9.80
2023-05-12T04:41:39.688Z,11.93
2023-05-12T04:42:36.653Z,9.93
2023-05-12T04:44:33.450Z,11.18
2023-05-12T04:45:30.602Z,10.65
2023-05-12T04:46:27.607Z,11.85
2023-05-12T04:47:24.601Z,10.82
2023-05-12T04:48:22.100Z,10.63
2023-05-12T04:49:19.032Z,11.38
2023-05-12T04:50:15.991Z,10.52
2023-05-12T04:51:12.881Z,11.02
2023-05-12T04:52:09.776Z,10.77
2023-05-12T04:53:06.675Z,10.55
2023-05-12T04:54:03.596Z,12.93
2023-05-12T04:55:00.528Z,11.07
2023-05-12T04:55:57.414Z,11.45
2023-05-12T04:56:54.329Z,10.68
2023-05-12T04:57:51.326Z,9.93
2023-05-12T04:58:50.291Z,10.93
2023-05-12T04:59:47.271Z,10.85
2023-05-12T05:00:44.254Z,15.38
2023-05-12T05:01:42.023Z,10.55
2023-05-12T05:02:39.438Z,10.48
2023-05-12T05:03:36.532Z,10.98
2023-05-12T05:04:33.937Z,10.55
2023-05-12T05:05:30.920Z,10.52
2023-05-12T05:06:28.550Z,19.20
2023-05-12T05:07:25.511Z,10.32
2023-05-12T05:08:22.451Z,13.13
2023-05-12T05:09:19.354Z,10.00
2023-05-12T05:10:16.399Z,10.70
2023-05-12T05:11:13.578Z,11.82
2023-05-12T05:12:10.610Z,11.32
2023-05-12T05:13:07.515Z,11.82
2023-05-12T05:14:04.436Z,12.50
2023-05-12T05:15:01.379Z,11.15
2023-05-12T05:15:58.381Z,11.15
2023-05-12T05:16:55.290Z,10.52
2023-05-12T05:17:52.239Z,11.23
2023-05-12T05:18:49.345Z,10.88
2023-05-12T05:19:57.469Z,11.77
2023-05-12T05:20:58.796Z,9.68
2023-05-12T05:21:56.091Z,13.55
2023-05-12T05:22:53.030Z,10.95
2023-05-12T05:23:49.936Z,10.60
2023-05-12T05:24:46.861Z,10.05
2023-05-12T05:25:43.836Z,10.50
2023-05-12T05:26:40.921Z,9.68
2023-05-12T05:27:38.980Z,9.75
2023-05-12T05:28:36.772Z,10.10
2023-05-12T05:29:33.671Z,11.38
2023-05-12T05:30:30.650Z,11.40
2023-05-12T05:31:30.534Z,12.48
2023-05-12T05:32:27.642Z,10.02
2023-05-12T05:33:24.637Z,11.00
2023-05-12T05:34:21.958Z,9.50
2023-05-12T05:35:19.224Z,9.32
2023-05-12T05:36:16.753Z,8.63
2023-05-12T05:37:13.641Z,8.75
2023-05-12T05:38:10.665Z,9.43
2023-05-12T05:39:07.830Z,9.50
2023-05-12T05:40:05.357Z,8.60
2023-05-12T05:41:02.367Z,9.27
2023-05-12T05:41:59.211Z,8.68
2023-05-12T05:42:56.094Z,8.68
2023-05-12T05:43:53.031Z,8.93
2023-05-12T05:44:49.959Z,9.95
2023-05-12T05:45:47.434Z,8.75
2023-05-12T05:46:44.353Z,9.25
2023-05-12T05:47:41.515Z,9.07
2023-05-12T05:48:38.510Z,7.35
2023-05-12T05:49:35.470Z,7.80
2023-05-12T05:50:32.391Z,9.43
2023-05-12T05:51:29.268Z,7.78
2023-05-12T05:52:26.298Z,7.45
2023-05-12T05:53:23.253Z,7.60
2023-05-12T05:54:20.170Z,7.60
2023-05-12T05:55:17.306Z,8.20
2023-05-12T05:56:14.312Z,7.15
2023-05-12T05:57:11.416Z,7.20
2023-05-12T05:58:08.816Z,7.53
2023-05-12T05:59:06.084Z,7.00
2023-05-12T06:00:03.006Z,8.25
2023-05-12T06:01:00.738Z,7.22
2023-05-12T06:01:58.262Z,7.18
2023-05-12T06:02:55.352Z,7.18
2023-05-12T06:03:52.683Z,7.37
2023-05-12T06:04:50.248Z,6.87
2023-05-12T06:05:47.179Z,7.00
2023-05-12T06:06:44.617Z,6.62
2023-05-12T06:07:41.559Z,7.03
2023-05-12T06:08:38.486Z,8.35
2023-05-12T06:09:35.368Z,6.70
2023-05-12T06:10:32.385Z,7.57
2023-05-12T06:11:29.414Z,7.30
2023-05-12T06:12:26.387Z,7.35
2023-05-12T06:13:23.281Z,8.23
2023-05-12T06:14:20.208Z,7.80
2023-05-12T06:15:17.550Z,7.37
2023-05-12T06:16:14.615Z,7.10
2023-05-12T06:17:11.670Z,8.95
2023-05-12T06:18:08.690Z,6.72
2023-05-12T06:19:05.615Z,7.07
2023-05-12T06:20:03.224Z,7.47
2023-05-12T06:21:00.308Z,7.87
2023-05-12T06:21:57.253Z,7.85
2023-05-12T06:22:54.285Z,7.28
2023-05-12T06:23:51.812Z,13.52
2023-05-12T06:24:48.834Z,8.38
2023-05-12T06:25:45.752Z,7.72
2023-05-12T06:26:42.644Z,7.32
2023-05-12T06:27:39.547Z,7.05
2023-05-12T06:28:36.508Z,7.60
2023-05-12T06:29:33.474Z,8.90
2023-05-12T06:30:30.508Z,6.72
2023-05-12T06:31:27.527Z,6.78
2023-05-12T06:32:24.556Z,8.00
2023-05-12T06:33:22.038Z,8.25
2023-05-12T06:34:19.020Z,7.62
2023-05-12T06:35:16.007Z,7.12
2023-05-12T06:36:13.758Z,7.82
2023-05-12T06:37:11.253Z,7.62
2023-05-12T06:38:08.234Z,7.35
2023-05-12T06:39:05.705Z,7.90
2023-05-12T06:40:02.683Z,7.35
2023-05-12T06:40:59.668Z,7.65
2023-05-12T06:41:57.066Z,7.18
2023-05-12T06:42:54.111Z,7.72
2023-05-12T06:43:51.910Z,9.20
2023-05-12T06:44:51.738Z,8.00
2023-05-12T06:45:49.296Z,7.57
2023-05-12T06:46:46.441Z,8.05
2023-05-12T06:47:43.519Z,8.90
2023-05-12T06:48:40.975Z,7.30
2023-05-12T06:49:38.935Z,7.40
2023-05-12T06:50:35.961Z,8.95
2023-05-12T06:51:35.498Z,7.62
2023-05-12T06:52:32.731Z,8.43
2023-05-12T06:53:30.645Z,7.43
2023-05-12T06:54:28.015Z,8.07
2023-05-12T06:55:25.377Z,7.45
2023-05-12T06:56:23.462Z,8.65
2023-05-12T06:57:23.218Z,7.87
2023-05-12T06:58:28.167Z,7.93
2023-05-12T06:59:25.574Z,9.25
2023-05-12T07:00:24.663Z,9.00
2023-05-12T07:01:22.390Z,7.18
2023-05-12T07:02:19.436Z,7.87
2023-05-12T07:03:16.841Z,9.10
2023-05-12T07:04:14.654Z,8.15
2023-05-12T07:05:12.217Z,8.20
2023-05-12T07:06:09.251Z,7.55
2023-05-12T07:07:06.352Z,7.32
2023-05-12T07:08:03.412Z,10.88
2023-05-12T07:09:00.671Z,6.97
2023-05-12T07:09:57.611Z,9.52
2023-05-12T07:10:54.612Z,8.30
2023-05-12T07:11:51.571Z,6.57
2023-05-12T07:12:48.556Z,6.95
2023-05-12T07:13:46.153Z,6.47
2023-05-12T07:14:43.151Z,6.78
2023-05-12T07:15:40.110Z,6.28
2023-05-12T07:16:38.290Z,6.95
2023-05-12T07:17:35.483Z,6.80
2023-05-12T07:18:32.559Z,6.60
2023-05-12T07:19:29.899Z,7.05
2023-05-12T07:20:27.431Z,11.12
2023-05-12T07:21:24.801Z,8.20
2023-05-12T07:22:22.522Z,7.60
2023-05-12T07:23:19.508Z,7.43
2023-05-12T07:24:16.972Z,30.10
2023-05-12T07:25:14.131Z,73.32
2023-05-12T07:26:11.350Z,35.58
2023-05-12T07:27:08.452Z,44.10
2023-05-12T07:28:05.761Z,17.27
2023-05-12T07:29:04.243Z,20.62
2023-05-12T07:30:01.254Z,22.60
2023-05-12T07:30:59.578Z,22.73
2023-05-12T07:31:56.670Z,13.57
2023-05-12T07:32:53.684Z,10.93
2023-05-12T07:33:50.752Z,7.68
2023-05-12T07:34:49.075Z,8.88
2023-05-12T07:35:46.774Z,6.15
2023-05-12T07:36:44.280Z,6.80
2023-05-12T07:37:42.206Z,7.85
2023-05-12T07:38:39.251Z,7.07
2023-05-12T07:39:36.673Z,28.92
2023-05-12T07:40:33.659Z,6.65
2023-05-12T07:41:32.573Z,7.15
2023-05-12T07:42:31.144Z,7.87
2023-05-12T07:43:28.194Z,7.12
2023-05-12T07:44:25.935Z,8.43
2023-05-12T07:45:23.512Z,10.02
2023-05-12T07:46:20.572Z,8.60
2023-05-12T07:47:17.642Z,7.00
2023-05-12T07:48:15.362Z,7.45
2023-05-12T07:49:12.938Z,6.82
2023-05-12T07:50:11.352Z,7.03
2023-05-12T07:51:09.031Z,6.43
2023-05-12T07:52:06.443Z,6.10
2023-05-12T07:53:04.992Z,6.30
2023-05-12T07:54:02.120Z,6.85
2023-05-12T07:54:59.077Z,6.07
2023-05-12T07:55:56.055Z,7.20
2023-05-12T07:56:53.156Z,6.10
2023-05-12T07:57:51.735Z,6.37
2023-05-12T07:58:51.735Z,6.68
2023-05-12T07:59:49.533Z,6.43
2023-05-12T08:00:46.574Z,7.75
2023-05-12T08:01:43.753Z,6.70
2023-05-12T08:02:41.756Z,7.00
2023-05-12T08:03:39.092Z,7.20
2023-05-12T08:04:36.309Z,9.05
2023-05-12T08:05:33.593Z,5.80
2023-05-12T08:06:30.692Z,6.15
2023-05-12T08:07:27.656Z,7.00
2023-05-12T08:08:24.567Z,9.48
2023-05-12T08:09:21.641Z,6.35
2023-05-12T08:10:19.718Z,6.80
2023-05-12T08:11:16.660Z,8.15
2023-05-12T08:12:13.602Z,7.30
2023-05-12T08:13:10.651Z,6.37
2023-05-12T08:14:08.692Z,6.80
2023-05-12T08:15:06.250Z,7.18
2023-05-12T08:16:03.443Z,6.53
2023-05-12T08:17:01.819Z,6.70
2023-05-12T08:17:58.828Z,7.53
2023-05-12T08:18:55.927Z,8.50
2023-05-12T08:19:52.874Z,7.78
2023-05-12T08:20:50.494Z,7.15
2023-05-12T08:21:47.728Z,7.07
2023-05-12T08:22:44.914Z,6.82
2023-05-12T08:23:41.872Z,8.05
2023-05-12T08:24:38.925Z,7.90
2023-05-12T08:25:37.314Z,7.40
2023-05-12T08:26:34.330Z,6.65
2023-05-12T08:27:31.396Z,6.70
2023-05-12T08:28:28.573Z,6.80
2023-05-12T08:29:25.509Z,7.00
2023-05-12T08:30:22.623Z,7.12
2023-05-12T08:31:20.473Z,8.85
2023-05-12T08:32:17.473Z,7.30
2023-05-12T08:33:14.956Z,7.93
2023-05-12T08:34:11.932Z,8.70
2023-05-12T08:35:09.669Z,6.80
2023-05-12T08:36:06.734Z,9.07
2023-05-12T08:37:03.788Z,6.37
2023-05-12T08:38:01.711Z,6.95
2023-05-12T08:38:58.732Z,7.07
2023-05-12T08:39:55.970Z,8.55
2023-05-12T08:40:55.821Z,8.18
2023-05-12T08:42:03.829Z,10.80
2023-05-12T08:43:38.811Z,7.62
2023-05-12T08:44:38.378Z,7.40
2023-05-12T08:45:38.649Z,8.48
2023-05-12T08:46:36.013Z,8.20
2023-05-12T08:47:34.589Z,7.37
2023-05-12T08:48:35.602Z,9.75
2023-05-12T08:49:33.990Z,8.30
2023-05-12T08:50:31.511Z,7.75
2023-05-12T08:51:29.594Z,7.90
2023-05-12T08:52:34.048Z,7.45
2023-05-12T08:53:33.152Z,9.25
2023-05-12T08:54:30.716Z,8.48
2023-05-12T08:55:31.716Z,8.80
2023-05-12T08:57:30.275Z,9.93
2023-05-12T08:58:37.894Z,9.95
2023-05-12T08:59:39.230Z,8.43
2023-05-12T09:00:39.358Z,9.05
2023-05-12T09:01:37.237Z,9.38
2023-05-12T09:02:44.998Z,9.13
2023-05-12T09:03:45.859Z,9.45
2023-05-12T09:04:43.227Z,9.45
2023-05-12T09:05:41.110Z,9.73
2023-05-12T09:06:38.207Z,8.98
2023-05-12T09:07:36.750Z,9.95
2023-05-12T09:08:35.232Z,8.90
2023-05-12T09:09:34.699Z,9.10
2023-05-12T09:10:35.074Z,8.95
2023-05-12T09:11:32.840Z,9.52
2023-05-12T09:12:32.727Z,9.57
2023-05-12T09:13:53.939Z,9.38
2023-05-12T09:14:58.450Z,10.75
2023-05-12T09:15:57.133Z,11.07
2023-05-12T09:17:01.708Z,9.60
2023-05-12T09:17:58.664Z,10.93
2023-05-12T09:18:58.533Z,10.57
2023-05-12T09:19:55.554Z,10.15
2023-05-12T09:20:52.593Z,10.18
2023-05-12T09:21:49.545Z,11.20
2023-05-12T09:22:46.519Z,13.30
2023-05-12T09:24:06.578Z,14.50
2023-05-12T09:25:17.555Z,12.37
2023-05-12T09:26:14.577Z,11.18
2023-05-12T09:27:11.611Z,11.77
2023-05-12T09:28:09.057Z,10.20
2023-05-12T09:29:07.090Z,11.68
2023-05-12T09:30:04.393Z,12.40
2023-05-12T09:31:01.431Z,13.55
2023-05-12T09:32:02.605Z,11.40
2023-05-12T09:33:08.463Z,15.02
2023-05-12T09:34:09.977Z,14.68
2023-05-12T09:35:11.396Z,10.40
2023-05-12T09:36:08.591Z,14.63
2023-05-12T09:37:06.870Z,11.95
2023-05-12T09:38:08.533Z,13.00
2023-05-12T09:39:07.406Z,9.48
2023-05-12T09:40:06.456Z,10.35
2023-05-12T09:41:03.516Z,10.55
2023-05-12T09:42:00.759Z,12.85
2023-05-12T09:42:57.714Z,9.05
2023-05-12T09:43:54.775Z,9.82
2023-05-12T09:44:52.206Z,10.18
2023-05-12T09:45:50.824Z,9.48
2023-05-12T09:46:48.592Z,9.52
2023-05-12T09:47:45.705Z,9.18
2023-05-12T09:48:42.753Z,9.25
2023-05-12T09:49:46.532Z,8.90
2023-05-12T09:50:48.705Z,9.38
2023-05-12T09:51:45.841Z,9.23
2023-05-12T09:52:42.792Z,9.43
2023-05-12T09:53:46.793Z,8.80
2023-05-12T09:54:43.768Z,9.90
2023-05-12T09:55:44.776Z,12.00
2023-05-12T09:56:41.830Z,9.52
2023-05-12T09:57:43.529Z,8.15
2023-05-12T09:58:45.057Z,8.32
2023-05-12T09:59:44.124Z,9.15
2023-05-12T10:00:59.290Z,8.68
2023-05-12T10:02:01.259Z,10.80
2023-05-12T10:02:58.773Z,8.00
2023-05-12T10:03:57.505Z,8.05
2023-05-12T10:04:58.886Z,8.80
2023-05-12T10:06:01.066Z,8.40
2023-05-12T10:06:58.740Z,8.38
2023-05-12T10:07:58.183Z,8.98
2023-05-12T10:09:24.082Z,9.25
2023-05-12T10:10:23.952Z,8.25
2023-05-12T10:11:23.192Z,12.25
2023-05-12T10:12:20.128Z,8.95
2023-05-12T10:13:17.666Z,10.05
2023-05-12T10:14:14.946Z,12.65
2023-05-12T10:15:13.258Z,9.48
2023-05-12T10:16:10.594Z,9.02
2023-05-12T10:17:08.400Z,10.02
2023-05-12T10:18:05.482Z,11.50
2023-05-12T10:19:06.507Z,9.43
2023-05-12T10:20:07.174Z,8.95
2023-05-12T10:21:04.561Z,8.98
2023-05-12T10:22:02.184Z,7.97
2023-05-12T10:22:59.571Z,9.10
2023-05-12T10:23:58.110Z,10.05
2023-05-12T10:24:55.111Z,12.05
2023-05-12T10:25:54.410Z,9.10
2023-05-12T10:26:51.552Z,8.77
2023-05-12T10:27:49.351Z,9.52
2023-05-12T10:28:46.408Z,9.18
2023-05-12T10:29:43.918Z,12.18
2023-05-12T10:30:41.685Z,8.88
2023-05-12T10:31:38.950Z,8.73
2023-05-12T10:32:35.982Z,8.85
2023-05-12T10:33:33.765Z,9.30
2023-05-12T10:34:34.136Z,10.68
2023-05-12T10:35:38.350Z,8.38
2023-05-12T10:36:46.694Z,7.60
2023-05-12T10:37:44.774Z,8.98
2023-05-12T10:38:41.708Z,7.90
2023-05-12T10:39:47.805Z,8.73
2023-05-12T10:40:58.376Z,7.30
2023-05-12T10:42:02.873Z,8.07
2023-05-12T10:43:01.050Z,7.95
2023-05-12T10:43:58.271Z,8.95
2023-05-12T10:44:56.691Z,6.70
2023-05-12T10:46:18.275Z,7.47
2023-05-12T10:47:15.380Z,7.07
2023-05-12T10:48:16.036Z,7.28
2023-05-12T10:49:15.748Z,7.40
2023-05-12T10:50:13.922Z,7.05
2023-05-12T10:51:11.561Z,10.50
2023-05-12T10:52:08.579Z,8.00
2023-05-12T10:53:05.549Z,6.47
2023-05-12T10:54:04.645Z,11.40
2023-05-12T10:55:03.460Z,7.87
2023-05-12T10:56:05.301Z,7.10
2023-05-12T10:57:02.707Z,6.57
2023-05-12T10:58:14.727Z,12.35
2023-05-12T10:59:23.146Z,8.10
2023-05-12T11:00:25.774Z,6.90
2023-05-12T11:01:26.232Z,8.15
2023-05-12T11:02:36.386Z,7.72
2023-05-12T11:03:38.594Z,6.62
2023-05-12T11:04:41.857Z,7.20
2023-05-12T11:05:39.939Z,6.80
2023-05-12T11:06:37.861Z,6.78
2023-05-12T11:07:35.639Z,7.07
2023-05-12T11:08:35.968Z,8.43
2023-05-12T11:09:36.728Z,6.82
2023-05-12T11:10:36.245Z,6.93
2023-05-12T11:11:34.244Z,8.68
2023-05-12T11:12:33.033Z,6.37
2023-05-12T11:13:30.691Z,8.52
2023-05-12T11:14:28.265Z,7.97
2023-05-12T11:15:25.245Z,6.07
2023-05-12T11:16:22.255Z,5.20
2023-05-12T11:17:19.289Z,7.60
2023-05-12T11:18:23.014Z,6.10
2023-05-12T11:19:19.963Z,7.30
2023-05-12T11:20:24.289Z,7.20
2023-05-12T11:21:23.931Z,6.12
2023-05-12T11:22:22.708Z,6.05
2023-05-12T11:23:27.655Z,6.40
2023-05-12T11:24:25.311Z,6.50
2023-05-12T11:25:22.810Z,6.20
2023-05-12T11:26:20.076Z,5.95
2023-05-12T11:27:18.983Z,5.80
2023-05-12T11:28:16.090Z,6.68
2023-05-12T11:29:13.093Z,6.00
2023-05-12T11:30:11.398Z,9.95
2023-05-12T11:31:09.075Z,7.57
2023-05-12T11:32:06.324Z,5.68
2023-05-12T11:33:03.971Z,5.53
2023-05-12T11:34:12.694Z,6.07
2023-05-12T11:35:18.256Z,6.65
2023-05-12T11:36:17.351Z,7.32
2023-05-12T11:37:14.398Z,8.23
2023-05-12T11:38:18.263Z,5.50
2023-05-12T11:39:23.144Z,6.15
2023-05-12T11:40:23.682Z,7.72
2023-05-12T11:41:27.054Z,6.00
2023-05-12T11:42:25.823Z,6.05
2023-05-12T11:43:23.028Z,8.00
2023-05-12T11:44:21.875Z,7.22
2023-05-12T11:45:23.672Z,7.68
2023-05-12T11:46:30.359Z,9.60
2023-05-12T11:47:27.502Z,6.28
2023-05-12T11:48:33.681Z,6.45
2023-05-12T11:49:31.891Z,6.45
2023-05-12T11:50:28.842Z,7.25
2023-05-12T11:51:26.810Z,6.70
2023-05-12T11:52:25.299Z,7.10
2023-05-12T11:53:25.172Z,7.20
2023-05-12T11:54:23.677Z,9.73
2023-05-12T11:55:23.649Z,6.90
2023-05-12T11:56:24.751Z,8.68
2023-05-12T11:57:31.989Z,7.40
2023-05-12T11:58:30.929Z,6.05
2023-05-12T11:59:34.586Z,8.10
2023-05-12T12:00:34.162Z,7.07
2023-05-12T12:01:31.240Z,11.50
2023-05-12T12:02:28.719Z,7.78
2023-05-12T12:03:27.066Z,6.57
2023-05-12T12:04:43.152Z,6.47
2023-05-12T12:05:42.520Z,7.57
2023-05-12T12:06:46.676Z,7.60
2023-05-12T12:07:43.614Z,6.80
2023-05-12T12:08:53.898Z,11.12
2023-05-12T12:09:50.973Z,9.60
2023-05-12T12:10:48.047Z,7.30
2023-05-12T12:11:44.996Z,6.70
2023-05-12T12:12:42.756Z,6.55
2023-05-12T12:13:39.716Z,6.65
2023-05-12T12:14:41.769Z,6.37
2023-05-12T12:15:38.853Z,8.77
2023-05-12T12:16:35.873Z,6.07
2023-05-12T12:17:33.121Z,7.35
2023-05-12T12:18:30.130Z,7.05
2023-05-12T12:20:27.556Z,11.95
2023-05-12T12:21:25.787Z,8.40
2023-05-12T12:22:22.877Z,6.37
2023-05-12T12:23:19.918Z,7.65
2023-05-12T12:24:17.669Z,7.72
2023-05-12T12:25:14.655Z,7.68
2023-05-12T12:26:11.712Z,6.72
2023-05-12T12:27:08.675Z,8.02
2023-05-12T12:28:05.903Z,6.90
2023-05-12T12:29:02.932Z,8.50
2023-05-12T12:30:00.190Z,7.95
2023-05-12T12:30:57.361Z,9.07
2023-05-12T12:31:54.353Z,7.07
2023-05-12T12:32:51.397Z,7.28
2023-05-12T12:33:48.357Z,9.98
2023-05-12T12:34:46.597Z,7.80
2023-05-12T12:35:43.633Z,6.85
2023-05-12T12:36:41.372Z,8.45
2023-05-12T12:37:38.792Z,8.25
2023-05-12T12:38:35.715Z,8.18
2023-05-12T12:39:32.707Z,7.45
2023-05-12T12:40:31.077Z,8.43
2023-05-12T12:41:28.200Z,6.80
2023-05-12T12:42:25.277Z,7.10
2023-05-12T12:43:22.322Z,6.97
2023-05-12T12:44:19.260Z,6.87
2023-05-12T12:45:16.974Z,9.43
2023-05-12T12:46:15.583Z,8.77
2023-05-12T12:47:12.679Z,9.15
2023-05-12T12:48:09.748Z,8.77
2023-05-12T12:49:06.732Z,7.40
2023-05-12T12:50:04.268Z,8.63
2023-05-12T12:51:01.674Z,7.40